Time;durP1;ratioP1;P1;durP2;ratioP2;P2;SDS_P1;SDS_P2;PMS_P1;PMS_P2;Temp;Humidity;BMP_temperature;BMP_pressure;BME280_temperature;BME280_humidity;BME280_pressure;Samples;Min_cycle;Max_cycle;Signal;HPM_P1;HPM_P2
2023/01/18 00:00:40;;;;;;;7.15;5.07;;;;;;;;;;5032657;28;20115;-69
2023/01/18 00:03:10;;;;;;;6.68;4.40;;;;;;;;;;5032549;28;20037;-69
2023/01/18 00:05:40;;;;;;;10.40;5.30;;;;;;;;;;5032074;28;20037;-69
2023/01/18 00:08:09;;;;;;;6.65;4.88;;;;;;;;;;5033138;28;20041;-69
2023/01/18 00:10:35;;;;;;;8.68;5.03;;;;;;;;;;5028912;28;20045;-69
2023/01/18 00:13:01;;;;;;;7.47;5.35;;;;;;;;;;5033069;28;20083;-69
2023/01/18 00:15:27;;;;;;;10.95;5.25;;;;;;;;;;5029341;28;20038;-69
2023/01/18 00:17:53;;;;;;;7.75;5.03;;;;;;;;;;5031255;28;20048;-69
2023/01/18 00:20:20;;;;;;;8.65;5.38;;;;;;;;;;5029720;28;20491;-69
2023/01/18 00:22:46;;;;;;;8.82;5.65;;;;;;;;;;5031790;28;20038;-69
2023/01/18 00:25:12;;;;;;;8.52;5.78;;;;;;;;;;5030372;28;20091;-69
2023/01/18 00:27:39;;;;;;;7.15;5.53;;;;;;;;;;5031317;28;20069;-69
2023/01/18 00:30:05;;;;;;;10.73;5.63;;;;;;;;;;5032390;28;20092;-68
2023/01/18 00:32:32;;;;;;;9.75;5.10;;;;;;;;;;5029341;28;20036;-69
2023/01/18 00:34:59;;;;;;;8.38;5.97;;;;;;;;;;5030639;28;20495;-69
2023/01/18 00:37:25;;;;;;;7.53;5.32;;;;;;;;;;5032691;28;20061;-69
2023/01/18 00:39:51;;;;;;;9.52;5.80;;;;;;;;;;5033095;28;20041;-69
2023/01/18 00:45:02;;;;;;;7.50;5.75;;;;;;;;;;5021281;28;20132;-69
2023/01/18 00:47:28;;;;;;;7.68;5.60;;;;;;;;;;5032288;28;20037;-69
2023/01/18 00:49:54;;;;;;;8.13;5.85;;;;;;;;;;5029619;28;20041;-69
2023/01/18 00:52:20;;;;;;;9.95;5.90;;;;;;;;;;5031609;28;20044;-69
2023/01/18 00:54:46;;;;;;;10.63;6.00;;;;;;;;;;5031066;28;20450;-69
2023/01/18 00:57:12;;;;;;;8.88;6.53;;;;;;;;;;5031523;28;20034;-69
2023/01/18 00:59:38;;;;;;;8.60;5.93;;;;;;;;;;5032973;28;20048;-69
2023/01/18 01:02:04;;;;;;;12.20;6.47;;;;;;;;;;5027092;28;20116;-69
2023/01/18 01:07:15;;;;;;;8.07;5.68;;;;;;;;;;5032369;28;20419;-69
2023/01/18 01:09:43;;;;;;;7.88;6.18;;;;;;;;;;5027293;28;20037;-69
2023/01/18 01:26:05;;;;;;;11.52;7.22;;;;;;;;;;5030083;28;20049;-68
2023/01/18 01:28:31;;;;;;;9.57;7.13;;;;;;;;;;5027254;28;20078;-69
2023/01/18 01:30:58;;;;;;;10.35;6.88;;;;;;;;;;5031975;28;20073;-68
2023/01/18 01:33:24;;;;;;;10.40;7.35;;;;;;;;;;5026546;28;20048;-68
2023/01/18 01:35:54;;;;;;;12.15;7.72;;;;;;;;;;5025952;28;20411;-68
2023/01/18 01:38:20;;;;;;;13.95;7.50;;;;;;;;;;5024634;28;20033;-68
2023/01/18 01:40:55;;;;;;;10.27;7.28;;;;;;;;;;5027820;28;20060;-68
2023/01/18 01:43:36;;;;;;;11.27;7.53;;;;;;;;;;5034852;28;20045;-68
2023/01/18 01:46:02;;;;;;;11.52;7.47;;;;;;;;;;5034475;28;20037;-68
2023/01/18 01:48:28;;;;;;;12.45;7.63;;;;;;;;;;5035449;28;20152;-68
2023/01/18 01:50:54;;;;;;;10.32;7.88;;;;;;;;;;5032472;28;20037;-68
2023/01/18 01:53:20;;;;;;;11.90;7.10;;;;;;;;;;5036590;28;20405;-68
2023/01/18 01:55:47;;;;;;;11.60;7.30;;;;;;;;;;5041113;28;20041;-68
2023/01/18 01:58:17;;;;;;;10.93;7.18;;;;;;;;;;5029917;28;20403;-69
2023/01/18 02:00:43;;;;;;;11.88;7.57;;;;;;;;;;5025612;28;20052;-68
2023/01/18 02:03:11;;;;;;;11.88;7.15;;;;;;;;;;5031161;28;20515;-68
2023/01/18 02:05:41;;;;;;;11.15;7.05;;;;;;;;;;5031147;28;20045;-68
2023/01/18 02:08:10;;;;;;;10.10;7.53;;;;;;;;;;5030548;28;20451;-68
2023/01/18 02:10:36;;;;;;;11.25;7.85;;;;;;;;;;5029193;28;20045;-68
2023/01/18 02:13:02;;;;;;;11.77;8.23;;;;;;;;;;5016091;28;20042;-69
2023/01/18 02:15:32;;;;;;;12.20;7.72;;;;;;;;;;5025035;28;20561;-68
2023/01/18 02:18:01;;;;;;;9.77;8.20;;;;;;;;;;5025493;28;20048;-68
2023/01/18 02:20:45;;;;;;;10.40;8.18;;;;;;;;;;5030612;28;20041;-68
2023/01/18 02:23:31;;;;;;;14.20;8.27;;;;;;;;;;5029894;28;20472;-68
2023/01/18 02:26:06;;;;;;;10.65;7.85;;;;;;;;;;5030845;28;20041;-68
2023/01/18 02:28:33;;;;;;;12.02;7.60;;;;;;;;;;5026447;28;20038;-68
2023/01/18 02:31:03;;;;;;;10.98;7.40;;;;;;;;;;5028985;28;20107;-69
2023/01/18 02:33:48;;;;;;;13.30;8.00;;;;;;;;;;5028057;28;20041;-68
2023/01/18 02:36:37;;;;;;;12.80;7.95;;;;;;;;;;5031986;28;20030;-68
2023/01/18 02:39:06;;;;;;;11.70;7.85;;;;;;;;;;5021399;28;20037;-68
2023/01/18 02:47:08;;;;;;;14.27;9.20;;;;;;;;;;5031532;28;20087;-68
2023/01/18 02:49:34;;;;;;;11.98;7.82;;;;;;;;;;5033045;28;20095;-68
2023/01/18 02:52:01;;;;;;;12.30;8.65;;;;;;;;;;5028260;28;20080;-69
2023/01/18 02:54:28;;;;;;;12.18;8.45;;;;;;;;;;5062105;22;20041;-61
2023/01/18 02:56:54;;;;;;;15.20;8.32;;;;;;;;;;5053240;28;20460;-61
2023/01/18 02:59:27;;;;;;;14.68;8.48;;;;;;;;;;5053564;28;20473;-61
2023/01/18 03:02:05;;;;;;;10.43;7.95;;;;;;;;;;5048804;28;20069;-61
2023/01/18 03:04:35;;;;;;;11.18;8.07;;;;;;;;;;5052348;28;20051;-61
2023/01/18 03:07:03;;;;;;;11.82;8.00;;;;;;;;;;5049994;28;20540;-61
2023/01/18 03:09:30;;;;;;;12.75;7.63;;;;;;;;;;5054778;28;20098;-62
2023/01/18 03:12:02;;;;;;;15.70;8.73;;;;;;;;;;5053919;28;20073;-61
2023/01/18 03:14:54;;;;;;;9.77;7.43;;;;;;;;;;5050840;28;20030;-61
2023/01/18 03:17:39;;;;;;;12.15;7.90;;;;;;;;;;5053116;28;20595;-61
2023/01/18 03:20:10;;;;;;;13.07;7.53;;;;;;;;;;5045408;28;20112;-62
2023/01/18 03:25:28;;;;;;;12.88;7.75;;;;;;;;;;5051840;28;20130;-62
2023/01/18 03:33:44;;;;;;;11.95;7.50;;;;;;;;;;5053347;28;20158;-61
2023/01/18 03:36:13;;;;;;;16.08;8.02;;;;;;;;;;5050037;28;20075;-62
2023/01/18 03:38:41;;;;;;;13.10;7.50;;;;;;;;;;5052134;28;20032;-61
2023/01/18 03:41:08;;;;;;;11.98;7.68;;;;;;;;;;5054449;28;20486;-62
2023/01/18 03:43:36;;;;;;;10.43;7.82;;;;;;;;;;5053529;28;20057;-62
2023/01/18 03:46:03;;;;;;;11.18;7.88;;;;;;;;;;5051062;28;20048;-62
2023/01/18 03:48:30;;;;;;;11.43;7.50;;;;;;;;;;5054052;28;20025;-62
2023/01/18 03:51:08;;;;;;;15.32;7.82;;;;;;;;;;5052416;28;20395;-61
2023/01/18 03:53:37;;;;;;;13.13;7.78;;;;;;;;;;5050772;28;20086;-61
2023/01/18 03:56:25;;;;;;;10.05;7.63;;;;;;;;;;5045112;28;20048;-62
2023/01/18 03:58:53;;;;;;;13.27;8.07;;;;;;;;;;5052322;28;20090;-61
2023/01/18 04:01:19;;;;;;;10.18;7.18;;;;;;;;;;5047030;28;20044;-62
2023/01/18 04:03:45;;;;;;;12.40;8.20;;;;;;;;;;5050518;28;20071;-62
2023/01/18 04:06:11;;;;;;;11.68;7.82;;;;;;;;;;5052962;28;20071;-62
2023/01/18 04:08:37;;;;;;;10.85;7.95;;;;;;;;;;5043360;28;20502;-62
2023/01/18 04:11:03;;;;;;;12.27;8.02;;;;;;;;;;5053591;28;20127;-62
2023/01/18 04:13:30;;;;;;;10.57;7.55;;;;;;;;;;5051359;28;20112;-62
2023/01/18 04:15:56;;;;;;;11.82;7.82;;;;;;;;;;5053414;28;20402;-62
2023/01/18 04:18:22;;;;;;;15.48;7.88;;;;;;;;;;5051908;28;20041;-62
2023/01/18 04:20:48;;;;;;;13.43;8.13;;;;;;;;;;5050204;28;20123;-61
2023/01/18 04:23:14;;;;;;;12.10;7.95;;;;;;;;;;5050216;28;20128;-62
2023/01/18 04:25:44;;;;;;;15.40;8.40;;;;;;;;;;5052210;28;20087;-62
2023/01/18 04:28:10;;;;;;;11.73;8.10;;;;;;;;;;5052950;28;20129;-62
2023/01/18 04:30:36;;;;;;;11.27;8.38;;;;;;;;;;5051570;28;20124;-62
2023/01/18 04:33:02;;;;;;;11.77;8.80;;;;;;;;;;5049901;28;20399;-62
2023/01/18 04:35:28;;;;;;;12.85;8.57;;;;;;;;;;5052098;28;20048;-62
2023/01/18 04:37:54;;;;;;;13.32;9.40;;;;;;;;;;5043857;28;20125;-62
2023/01/18 04:40:20;;;;;;;13.32;9.30;;;;;;;;;;5050584;28;20112;-62
2023/01/18 04:42:53;;;;;;;13.15;8.88;;;;;;;;;;5048614;28;20059;-63
2023/01/18 04:45:19;;;;;;;15.20;9.05;;;;;;;;;;5053145;28;20059;-63
2023/01/18 04:47:45;;;;;;;16.48;8.85;;;;;;;;;;5052323;28;20455;-62
2023/01/18 04:50:12;;;;;;;12.98;9.32;;;;;;;;;;5049580;28;20033;-63
2023/01/18 04:52:38;;;;;;;15.07;9.73;;;;;;;;;;5050171;28;20511;-63
2023/01/18 04:55:04;;;;;;;17.35;8.80;;;;;;;;;;5050502;28;20075;-63
2023/01/18 04:57:30;;;;;;;15.95;9.25;;;;;;;;;;5051567;28;20049;-63
2023/01/18 04:59:56;;;;;;;12.60;8.93;;;;;;;;;;5051725;28;20402;-63
2023/01/18 05:02:22;;;;;;;13.98;9.50;;;;;;;;;;5043176;28;20033;-63
2023/01/18 05:04:48;;;;;;;13.32;8.50;;;;;;;;;;5044469;28;20036;-62
2023/01/18 05:07:14;;;;;;;16.52;9.18;;;;;;;;;;5044838;28;20498;-62
2023/01/18 05:09:40;;;;;;;19.73;8.90;;;;;;;;;;5039647;28;20029;-62
2023/01/18 05:12:06;;;;;;;16.13;9.38;;;;;;;;;;5048402;28;20166;-63
2023/01/18 05:14:32;;;;;;;13.00;9.35;;;;;;;;;;5050783;28;20037;-62
2023/01/18 05:16:58;;;;;;;13.98;8.55;;;;;;;;;;5048579;28;20048;-62
2023/01/18 05:19:29;;;;;;;14.10;9.55;;;;;;;;;;5050362;28;20418;-63
2023/01/18 05:21:55;;;;;;;16.25;8.98;;;;;;;;;;5046144;28;20556;-62
2023/01/18 05:24:21;;;;;;;16.05;9.77;;;;;;;;;;5049545;28;20098;-62
2023/01/18 05:26:47;;;;;;;13.95;9.20;;;;;;;;;;5047833;28;20045;-62
2023/01/18 05:29:13;;;;;;;12.93;9.18;;;;;;;;;;5051622;28;20463;-62
2023/01/18 05:31:39;;;;;;;13.45;9.27;;;;;;;;;;5049620;28;20033;-62
2023/01/18 05:34:05;;;;;;;19.20;9.05;;;;;;;;;;5049816;28;20041;-62
2023/01/18 05:36:31;;;;;;;14.50;9.55;;;;;;;;;;5051068;28;20116;-63
2023/01/18 05:38:57;;;;;;;13.82;8.55;;;;;;;;;;5048937;28;20048;-62
2023/01/18 05:41:23;;;;;;;13.80;9.18;;;;;;;;;;5051564;28;20040;-62
2023/01/18 05:43:49;;;;;;;12.65;8.82;;;;;;;;;;5051039;28;20083;-62
2023/01/18 05:46:15;;;;;;;14.05;8.50;;;;;;;;;;5049664;28;20060;-62
2023/01/18 05:48:41;;;;;;;14.32;8.85;;;;;;;;;;5051373;28;20044;-62
2023/01/18 05:51:09;;;;;;;14.77;9.02;;;;;;;;;;5049448;28;20037;-62
2023/01/18 05:53:35;;;;;;;15.05;7.88;;;;;;;;;;5044917;28;20083;-62
2023/01/18 05:56:02;;;;;;;12.05;8.23;;;;;;;;;;5049920;28;20449;-62
2023/01/18 05:58:28;;;;;;;10.60;8.25;;;;;;;;;;5048733;28;20060;-62
2023/01/18 06:00:55;;;;;;;12.48;7.20;;;;;;;;;;5044332;28;20340;-62
2023/01/18 06:03:21;;;;;;;11.15;7.53;;;;;;;;;;5048620;28;20433;-62
2023/01/18 06:05:47;;;;;;;11.95;8.38;;;;;;;;;;5048432;28;20464;-61
2023/01/18 06:08:14;;;;;;;12.18;7.82;;;;;;;;;;5048065;28;20064;-62
2023/01/18 06:10:40;;;;;;;13.57;7.82;;;;;;;;;;5050623;28;20052;-62
2023/01/18 06:13:06;;;;;;;15.45;7.60;;;;;;;;;;5032842;28;20055;-62
2023/01/18 06:15:32;;;;;;;12.85;7.38;;;;;;;;;;5024341;28;22047;-62
2023/01/18 06:17:58;;;;;;;14.45;7.88;;;;;;;;;;5020855;28;20044;-62
2023/01/18 06:20:29;;;;;;;13.23;8.10;;;;;;;;;;5048647;28;20040;-62
2023/01/18 06:22:55;;;;;;;13.65;7.78;;;;;;;;;;5049268;28;20041;-62
2023/01/18 06:25:21;;;;;;;15.05;8.27;;;;;;;;;;5049302;28;20036;-62
2023/01/18 06:27:47;;;;;;;13.43;8.60;;;;;;;;;;5048761;28;20515;-62
2023/01/18 06:30:13;;;;;;;15.73;8.05;;;;;;;;;;5045725;28;20121;-62
2023/01/18 06:32:39;;;;;;;14.20;9.00;;;;;;;;;;5049536;28;20041;-62
2023/01/18 06:35:05;;;;;;;17.45;10.23;;;;;;;;;;5048113;28;20083;-62
2023/01/18 06:37:31;;;;;;;14.80;9.38;;;;;;;;;;5049905;28;20049;-62
2023/01/18 06:39:57;;;;;;;12.90;8.50;;;;;;;;;;5049303;28;20051;-62
2023/01/18 06:42:23;;;;;;;14.55;8.60;;;;;;;;;;5045510;28;20040;-62
2023/01/18 06:44:49;;;;;;;13.55;8.75;;;;;;;;;;5044782;28;20064;-62
2023/01/18 06:47:18;;;;;;;13.48;9.13;;;;;;;;;;5044140;28;20053;-62
2023/01/18 06:49:45;;;;;;;14.52;9.35;;;;;;;;;;5049916;28;20041;-62
2023/01/18 06:52:11;;;;;;;14.23;9.18;;;;;;;;;;5047369;28;20045;-62
2023/01/18 06:54:37;;;;;;;16.10;9.70;;;;;;;;;;5049654;28;20055;-62
2023/01/18 06:57:03;;;;;;;14.50;9.55;;;;;;;;;;5041533;28;20467;-62
2023/01/18 06:59:29;;;;;;;15.00;9.60;;;;;;;;;;5041975;28;21291;-62
2023/01/18 07:01:55;;;;;;;18.52;10.68;;;;;;;;;;5042596;28;20048;-62
2023/01/18 07:04:21;;;;;;;14.98;10.27;;;;;;;;;;5045431;28;20051;-62
2023/01/18 07:06:47;;;;;;;14.82;10.23;;;;;;;;;;5047627;28;20041;-62
2023/01/18 07:09:13;;;;;;;18.08;10.55;;;;;;;;;;5047552;28;20513;-62
2023/01/18 07:11:42;;;;;;;18.00;10.38;;;;;;;;;;5046191;28;20116;-62
2023/01/18 07:14:09;;;;;;;17.58;10.27;;;;;;;;;;5047307;28;20041;-62
2023/01/18 07:16:35;;;;;;;19.30;12.73;;;;;;;;;;5047502;28;20502;-62
2023/01/18 07:19:02;;;;;;;17.70;10.82;;;;;;;;;;5045039;28;20507;-62
2023/01/18 07:21:28;;;;;;;15.75;10.98;;;;;;;;;;5046003;28;20118;-62
2023/01/18 07:23:56;;;;;;;19.55;11.30;;;;;;;;;;5038363;28;20129;-62
2023/01/18 07:26:22;;;;;;;20.35;11.55;;;;;;;;;;5043251;28;20045;-61
2023/01/18 07:28:48;;;;;;;19.10;12.38;;;;;;;;;;5047850;28;20061;-62
2023/01/18 07:31:15;;;;;;;19.35;11.43;;;;;;;;;;5049374;28;20150;-62
2023/01/18 07:33:41;;;;;;;17.92;11.55;;;;;;;;;;5052292;28;20051;-62
2023/01/18 07:36:09;;;;;;;18.13;11.98;;;;;;;;;;5054845;28;20116;-62
2023/01/18 07:38:36;;;;;;;20.10;12.95;;;;;;;;;;5054318;28;20044;-62
2023/01/18 07:41:04;;;;;;;18.38;12.00;;;;;;;;;;5045212;28;20548;-62
2023/01/18 07:43:30;;;;;;;19.42;11.10;;;;;;;;;;5052540;28;20048;-62
2023/01/18 07:45:57;;;;;;;21.77;12.98;;;;;;;;;;5051739;28;20045;-62
2023/01/18 07:48:23;;;;;;;19.85;11.98;;;;;;;;;;5050240;28;20049;-62
2023/01/18 07:50:57;;;;;;;20.90;11.93;;;;;;;;;;5053043;28;20205;-62
2023/01/18 07:53:24;;;;;;;18.52;11.25;;;;;;;;;;5051364;28;20040;-62
2023/01/18 07:55:50;;;;;;;17.13;11.45;;;;;;;;;;5048018;28;20037;-63
2023/01/18 07:58:17;;;;;;;17.05;12.00;;;;;;;;;;5046319;28;20039;-63
2023/01/18 08:00:43;;;;;;;19.20;12.15;;;;;;;;;;5043946;28;20044;-62
2023/01/18 08:03:15;;;;;;;19.25;12.25;;;;;;;;;;5050591;28;20041;-61
2023/01/18 08:05:42;;;;;;;19.05;11.50;;;;;;;;;;5049869;28;20502;-62
2023/01/18 08:08:08;;;;;;;17.15;12.15;;;;;;;;;;5051225;28;20968;-62
2023/01/18 08:10:34;;;;;;;19.38;12.30;;;;;;;;;;5052556;28;20044;-62
2023/01/18 08:13:00;;;;;;;18.85;12.30;;;;;;;;;;5048741;28;20556;-63
2023/01/18 08:15:26;;;;;;;18.63;11.45;;;;;;;;;;5049978;28;20028;-62
2023/01/18 08:17:54;;;;;;;17.33;11.35;;;;;;;;;;5049825;28;20424;-62
2023/01/18 08:20:21;;;;;;;18.88;11.90;;;;;;;;;;5051664;28;20037;-62
2023/01/18 08:22:47;;;;;;;21.17;12.63;;;;;;;;;;5044222;28;20049;-62
2023/01/18 08:25:14;;;;;;;19.42;10.65;;;;;;;;;;5052631;28;20052;-62
2023/01/18 08:27:39;;;;;;;18.42;11.35;;;;;;;;;;5052708;28;20033;-62
2023/01/18 08:30:06;;;;;;;18.73;11.65;;;;;;;;;;5052469;28;20098;-63
2023/01/18 08:32:33;;;;;;;21.67;12.10;;;;;;;;;;5053285;28;20057;-62
2023/01/18 08:34:59;;;;;;;22.45;12.27;;;;;;;;;;5046190;28;20080;-62
2023/01/18 08:37:25;;;;;;;18.83;12.30;;;;;;;;;;5045858;28;20049;-63
2023/01/18 08:39:51;;;;;;;21.48;13.00;;;;;;;;;;5047914;28;20041;-62
2023/01/18 08:42:17;;;;;;;19.33;12.50;;;;;;;;;;5047746;28;20051;-62
2023/01/18 08:44:43;;;;;;;21.75;13.57;;;;;;;;;;5050340;28;20076;-62
2023/01/18 08:47:09;;;;;;;20.50;12.35;;;;;;;;;;5047299;28;20459;-62
2023/01/18 08:49:35;;;;;;;19.40;12.75;;;;;;;;;;5048258;28;20076;-63
2023/01/18 08:52:01;;;;;;;19.75;12.35;;;;;;;;;;5050914;28;20040;-62
2023/01/18 08:54:27;;;;;;;18.52;12.52;;;;;;;;;;5075634;22;20032;-69
2023/01/18 08:56:53;;;;;;;17.45;12.30;;;;;;;;;;5062420;28;20067;-70
2023/01/18 08:59:19;;;;;;;19.08;10.98;;;;;;;;;;5066253;28;20048;-70
2023/01/18 09:01:45;;;;;;;17.98;11.98;;;;;;;;;;5065630;28;20045;-70
2023/01/18 09:04:12;;;;;;;20.88;12.65;;;;;;;;;;5080418;28;20040;-70
2023/01/18 09:06:38;;;;;;;19.40;12.50;;;;;;;;;;5081606;28;20044;-71
2023/01/18 09:09:04;;;;;;;17.70;11.85;;;;;;;;;;5079627;28;20035;-70
2023/01/18 09:11:30;;;;;;;18.85;12.35;;;;;;;;;;5083538;28;20043;-70
2023/01/18 09:13:58;;;;;;;18.48;12.10;;;;;;;;;;5086397;28;20040;-70
2023/01/18 09:16:24;;;;;;;16.10;10.50;;;;;;;;;;5079237;28;20036;-70
2023/01/18 09:18:50;;;;;;;15.88;10.93;;;;;;;;;;5081521;28;20520;-70
2023/01/18 09:21:16;;;;;;;19.00;11.23;;;;;;;;;;5075020;28;20052;-69
2023/01/18 09:23:44;;;;;;;19.70;11.23;;;;;;;;;;5075291;28;20445;-70
2023/01/18 09:26:20;;;;;;;21.95;11.85;;;;;;;;;;5089067;28;20501;-70
2023/01/18 09:28:51;;;;;;;15.18;10.80;;;;;;;;;;5089041;28;20036;-70
2023/01/18 09:31:17;;;;;;;19.52;11.88;;;;;;;;;;5081880;28;20123;-70
2023/01/18 09:33:43;;;;;;;16.58;10.75;;;;;;;;;;5067496;28;20036;-70
2023/01/18 09:36:11;;;;;;;17.17;11.70;;;;;;;;;;5074298;28;20040;-70
2023/01/18 09:38:37;;;;;;;17.63;10.85;;;;;;;;;;5080043;28;20031;-70
2023/01/18 09:41:22;;;;;;;14.10;9.65;;;;;;;;;;5078303;28;20036;-70
2023/01/18 09:43:49;;;;;;;16.02;10.77;;;;;;;;;;5079166;28;20564;-70
2023/01/18 09:46:20;;;;;;;16.40;10.27;;;;;;;;;;5085607;28;20036;-70
2023/01/18 09:48:52;;;;;;;18.27;10.37;;;;;;;;;;5092279;28;20042;-70
2023/01/18 09:51:23;;;;;;;16.38;10.05;;;;;;;;;;5086395;28;20301;-70
2023/01/18 09:54:12;;;;;;;14.77;9.38;;;;;;;;;;5091378;28;20082;-70
2023/01/18 09:56:56;;;;;;;16.50;9.20;;;;;;;;;;5082456;28;20040;-70
2023/01/18 09:59:25;;;;;;;14.18;9.02;;;;;;;;;;5091728;28;20040;-71
2023/01/18 10:01:51;;;;;;;15.35;9.77;;;;;;;;;;5088809;28;20429;-71
2023/01/18 10:04:20;;;;;;;15.90;9.85;;;;;;;;;;5090383;28;20036;-71
2023/01/18 10:07:00;;;;;;;13.10;9.48;;;;;;;;;;5086619;28;20067;-71
2023/01/18 10:09:32;;;;;;;13.90;9.68;;;;;;;;;;5091577;28;20047;-71
2023/01/18 10:12:00;;;;;;;14.30;9.10;;;;;;;;;;5078047;28;20076;-71
2023/01/18 10:14:45;;;;;;;14.75;9.20;;;;;;;;;;5080438;28;20032;-71
2023/01/18 10:17:17;;;;;;;15.48;9.05;;;;;;;;;;5078770;28;20053;-71
2023/01/18 10:19:43;;;;;;;11.75;8.43;;;;;;;;;;5073285;28;20044;-71
2023/01/18 10:22:25;;;;;;;15.63;8.93;;;;;;;;;;5082208;28;20143;-71
2023/01/18 10:24:51;;;;;;;10.07;7.47;;;;;;;;;;5085046;28;20048;-71
2023/01/18 10:27:40;;;;;;;13.77;8.73;;;;;;;;;;5089837;28;20515;-71
2023/01/18 10:30:06;;;;;;;13.65;7.65;;;;;;;;;;5055840;28;20050;-72
2023/01/18 10:32:32;;;;;;;12.07;8.00;;;;;;;;;;5073343;28;20125;-72
2023/01/18 10:34:59;;;;;;;12.10;7.22;;;;;;;;;;5078041;28;20486;-72
2023/01/18 10:37:25;;;;;;;12.63;8.35;;;;;;;;;;5079204;28;20506;-71
2023/01/18 10:40:00;;;;;;;13.57;6.93;;;;;;;;;;5082190;28;20118;-72
2023/01/18 10:42:30;;;;;;;15.85;8.57;;;;;;;;;;5072158;28;20405;-71
2023/01/18 10:44:56;;;;;;;12.73;7.85;;;;;;;;;;5086557;28;20059;-71
2023/01/18 10:47:22;;;;;;;12.30;8.02;;;;;;;;;;5084673;28;20040;-71
2023/01/18 10:49:50;;;;;;;11.70;7.57;;;;;;;;;;5080387;28;20098;-70
2023/01/18 10:52:36;;;;;;;13.35;8.10;;;;;;;;;;5084323;28;20048;-70
2023/01/18 10:55:06;;;;;;;11.63;7.55;;;;;;;;;;5085093;28;20435;-70
2023/01/18 10:57:48;;;;;;;12.60;8.27;;;;;;;;;;5088535;28;20044;-69
2023/01/18 11:00:29;;;;;;;12.20;8.20;;;;;;;;;;5082352;28;20040;-69
2023/01/18 11:02:57;;;;;;;13.23;7.93;;;;;;;;;;5082201;28;20458;-69
2023/01/18 11:05:23;;;;;;;12.35;7.60;;;;;;;;;;5079842;28;20036;-68
2023/01/18 11:08:08;;;;;;;12.27;7.45;;;;;;;;;;5086251;28;20032;-68
2023/01/18 11:10:40;;;;;;;11.25;7.68;;;;;;;;;;5090793;28;20047;-68
2023/01/18 11:13:06;;;;;;;;;;;;;;;;;;5075026;28;20613;-68
2023/01/18 11:15:32;;;;;;;15.10;8.02;;;;;;;;;;5084053;28;19919;-68
2023/01/18 11:18:02;;;;;;;12.45;8.40;;;;;;;;;;5086518;28;20097;-68
2023/01/18 11:20:34;;;;;;;13.82;8.52;;;;;;;;;;5087785;28;20401;-68
2023/01/18 11:23:03;;;;;;;12.93;7.93;;;;;;;;;;5089282;28;20069;-68
2023/01/18 11:25:48;;;;;;;15.30;8.40;;;;;;;;;;5083856;28;20405;-68
2023/01/18 11:28:22;;;;;;;13.25;8.07;;;;;;;;;;5090441;28;20032;-68
2023/01/18 11:31:05;;;;;;;13.13;7.30;;;;;;;;;;5085953;28;20032;-68
2023/01/18 11:33:32;;;;;;;14.35;8.02;;;;;;;;;;5089631;28;20485;-68
2023/01/18 11:35:59;;;;;;;15.77;8.27;;;;;;;;;;5090702;28;20531;-68
2023/01/18 11:38:32;;;;;;;11.55;7.15;;;;;;;;;;5080987;28;20086;-68
2023/01/18 11:41:04;;;;;;;11.32;6.97;;;;;;;;;;5082624;28;20048;-68
2023/01/18 11:43:31;;;;;;;11.23;6.10;;;;;;;;;;5079937;28;20502;-68
2023/01/18 11:46:04;;;;;;;9.98;6.78;;;;;;;;;;5086860;28;20386;-69
2023/01/18 11:48:49;;;;;;;11.23;7.05;;;;;;;;;;5078348;28;20457;-69
2023/01/18 11:51:16;;;;;;;10.60;6.75;;;;;;;;;;5087362;28;20036;-69
2023/01/18 11:54:01;;;;;;;10.48;6.93;;;;;;;;;;5089463;28;20119;-69
2023/01/18 11:56:33;;;;;;;11.00;6.38;;;;;;;;;;5086352;28;20067;-69
2023/01/18 11:59:00;;;;;;;8.88;6.10;;;;;;;;;;5084645;28;20043;-69
2023/01/18 12:01:29;;;;;;;10.10;6.53;;;;;;;;;;5089500;28;20631;-69
2023/01/18 12:03:58;;;;;;;12.93;6.55;;;;;;;;;;5094158;28;20044;-69
2023/01/18 12:06:42;;;;;;;9.77;6.50;;;;;;;;;;5089664;28;20036;-69
2023/01/18 12:09:15;;;;;;;9.57;6.18;;;;;;;;;;5086903;28;20089;-69
2023/01/18 12:12:01;;;;;;;13.13;6.28;;;;;;;;;;5092987;28;20043;-69
2023/01/18 12:14:34;;;;;;;10.82;6.35;;;;;;;;;;5079187;28;20043;-70
2023/01/18 12:17:18;;;;;;;9.63;6.15;;;;;;;;;;5088553;28;20039;-70
2023/01/18 12:20:03;;;;;;;10.13;5.82;;;;;;;;;;5088188;28;20410;-70
2023/01/18 12:22:40;;;;;;;10.05;5.60;;;;;;;;;;5082179;28;20044;-70
2023/01/18 12:25:24;;;;;;;6.68;4.60;;;;;;;;;;5084411;28;20482;-70
2023/01/18 12:28:00;;;;;;;11.02;5.47;;;;;;;;;;5081774;28;20048;-69
2023/01/18 12:30:49;;;;;;;7.65;5.20;;;;;;;;;;5076165;28;20078;-69
2023/01/18 12:33:19;;;;;;;10.20;4.75;;;;;;;;;;5080096;28;20508;-70
2023/01/18 12:35:51;;;;;;;7.28;5.32;;;;;;;;;;5084214;28;20032;-70
2023/01/18 12:38:21;;;;;;;9.30;4.80;;;;;;;;;;5086814;28;20376;-70
2023/01/18 12:41:06;;;;;;;8.27;4.77;;;;;;;;;;5088061;28;20040;-69
2023/01/18 12:43:44;;;;;;;8.90;4.90;;;;;;;;;;5091461;28;20298;-69
2023/01/18 12:46:14;;;;;;;8.63;4.35;;;;;;;;;;5075044;28;20039;-70
2023/01/18 12:48:51;;;;;;;7.57;4.80;;;;;;;;;;5084926;28;20127;-70
2023/01/18 12:51:20;;;;;;;8.20;4.85;;;;;;;;;;5093611;28;20044;-69
2023/01/18 12:54:04;;;;;;;8.65;5.30;;;;;;;;;;5093063;28;20067;-69
2023/01/18 12:56:42;;;;;;;9.32;5.30;;;;;;;;;;5087254;28;20044;-69
2023/01/18 12:59:15;;;;;;;8.45;4.63;;;;;;;;;;5084221;28;20046;-69
2023/01/18 13:01:42;;;;;;;7.53;5.50;;;;;;;;;;5084199;28;20121;-69
2023/01/18 13:04:13;;;;;;;12.15;5.50;;;;;;;;;;5091226;28;20513;-69
2023/01/18 13:06:40;;;;;;;6.60;5.18;;;;;;;;;;5088807;28;20429;-70
2023/01/18 13:09:11;;;;;;;8.45;5.68;;;;;;;;;;5079614;28;20562;-69
2023/01/18 13:11:40;;;;;;;6.33;5.13;;;;;;;;;;5091204;28;20040;-70
2023/01/18 13:14:16;;;;;;;6.28;4.25;;;;;;;;;;5086028;28;20075;-70
2023/01/18 13:17:01;;;;;;;9.77;4.60;;;;;;;;;;5077222;28;20697;-69
2023/01/18 13:19:31;;;;;;;8.90;5.30;;;;;;;;;;5076301;28;20051;-69
2023/01/18 13:22:06;;;;;;;7.70;4.53;;;;;;;;;;5086409;28;20374;-69
2023/01/18 13:24:45;;;;;;;7.63;5.10;;;;;;;;;;5089648;28;20044;-69
2023/01/18 13:27:12;;;;;;;6.80;4.60;;;;;;;;;;5074218;28;20104;-69
2023/01/18 13:29:39;;;;;;;7.68;4.70;;;;;;;;;;5082001;28;20460;-69
2023/01/18 13:32:26;;;;;;;7.20;5.15;;;;;;;;;;5091749;28;20040;-69
2023/01/18 13:35:04;;;;;;;7.30;4.78;;;;;;;;;;5077089;28;20127;-69
2023/01/18 13:37:48;;;;;;;9.15;5.63;;;;;;;;;;5085370;28;20138;-69
2023/01/18 13:40:26;;;;;;;6.82;4.13;;;;;;;;;;5085447;28;20039;-69
2023/01/18 13:42:52;;;;;;;10.15;4.40;;;;;;;;;;5072664;28;20076;-69
2023/01/18 13:45:18;;;;;;;8.45;4.47;;;;;;;;;;5085202;28;20575;-69
2023/01/18 13:47:48;;;;;;;9.30;5.15;;;;;;;;;;5077997;28;20044;-69
2023/01/18 13:50:47;;;;;;;8.88;4.90;;;;;;;;;;5088278;28;20036;-69
2023/01/18 13:53:13;;;;;;;7.25;5.18;;;;;;;;;;5082127;28;20036;-69
2023/01/18 13:55:40;;;;;;;7.70;5.03;;;;;;;;;;5090860;28;20047;-69
2023/01/18 13:58:24;;;;;;;8.02;5.30;;;;;;;;;;5091058;28;20557;-69
2023/01/18 14:00:50;;;;;;;7.63;4.50;;;;;;;;;;5082682;28;20038;-69
2023/01/18 14:03:21;;;;;;;7.93;4.88;;;;;;;;;;5089711;28;20375;-69
2023/01/18 14:05:48;;;;;;;7.53;4.55;;;;;;;;;;5088245;28;20044;-69
2023/01/18 14:08:18;;;;;;;9.05;5.20;;;;;;;;;;5092164;28;20043;-69
2023/01/18 14:10:47;;;;;;;7.07;4.88;;;;;;;;;;5086399;28;20032;-69
2023/01/18 14:13:17;;;;;;;6.75;4.57;;;;;;;;;;5091205;28;20105;-69
2023/01/18 14:15:53;;;;;;;9.82;5.03;;;;;;;;;;5078028;28;20037;-69
2023/01/18 14:18:21;;;;;;;9.45;5.63;;;;;;;;;;5080200;28;20067;-69
2023/01/18 14:20:57;;;;;;;10.85;6.60;;;;;;;;;;5082172;28;20032;-69
2023/01/18 14:23:31;;;;;;;11.00;8.55;;;;;;;;;;5075459;28;20063;-69
2023/01/18 14:26:00;;;;;;;9.18;4.82;;;;;;;;;;5091098;28;20040;-69
2023/01/18 14:28:35;;;;;;;9.10;4.97;;;;;;;;;;5086649;28;20047;-68
2023/01/18 14:31:03;;;;;;;9.55;7.63;;;;;;;;;;5077701;28;20485;-69
2023/01/18 14:33:34;;;;;;;9.10;5.18;;;;;;;;;;5089371;28;20041;-69
2023/01/18 14:36:00;;;;;;;;;;;;;;;;;;5085708;28;20041;-69
2023/01/18 14:38:27;;;;;;;7.22;4.50;;;;;;;;;;5083156;28;20385;-69
2023/01/18 14:40:55;;;;;;;12.55;5.32;;;;;;;;;;5089668;28;20043;-66
2023/01/18 14:43:22;;;;;;;8.73;4.20;;;;;;;;;;5073906;28;20044;-68
2023/01/18 14:45:54;;;;;;;6.43;4.38;;;;;;;;;;5084631;28;20401;-68
2023/01/18 14:48:22;;;;;;;9.45;5.60;;;;;;;;;;5080953;28;20036;-67
2023/01/18 14:50:50;;;;;;;10.48;5.35;;;;;;;;;;5079286;28;20137;-68
2023/01/18 14:53:16;;;;;;;8.27;5.50;;;;;;;;;;5083619;22;20044;-62
2023/01/18 14:55:42;;;;;;;6.72;4.50;;;;;;;;;;5065423;28;20041;-62
2023/01/18 14:58:15;;;;;;;8.85;5.22;;;;;;;;;;5069199;28;20040;-62
2023/01/18 15:00:52;;;;;;;9.75;5.32;;;;;;;;;;5069566;28;20044;-61
2023/01/18 15:03:25;;;;;;;7.90;5.07;;;;;;;;;;5060096;28;20040;-62
2023/01/18 15:06:12;;;;;;;8.98;5.65;;;;;;;;;;5062940;28;20036;-62
2023/01/18 15:08:39;;;;;;;7.20;5.03;;;;;;;;;;5070716;28;20121;-62
2023/01/18 15:11:05;;;;;;;9.30;5.22;;;;;;;;;;5071808;28;20036;-63
2023/01/18 15:13:32;;;;;;;8.13;4.82;;;;;;;;;;5060067;28;20124;-62
2023/01/18 15:16:00;;;;;;;7.85;5.22;;;;;;;;;;5069869;28;20087;-63
2023/01/18 15:18:27;;;;;;;9.63;5.13;;;;;;;;;;5062278;28;20037;-62